Weather at Neuburg AFB

Public forecast

Using degrees Celsius for public forecast. Weather courtesy of forecast.io.

Current aviation weather report (METAR) for Neuburg AFB

Retrieved 2022/07/01 01:20 UTC (13 minutes ago):

ETSN 010120Z 28006KT 9999 FEW035 SCT050 BKN110 18/14 Q1015 BLU

Aviation forecast (TAF) for Neuburg AFB

Forecast is more than 12 hours old.

Retrieved 2021/07/03 17:38 UTC (12 months ago):

TAF ETSN 031620Z 0317/0420 VRB03KT 9999 NSW FEW050 BECMG 0321/0323 23005KT 9999 NSW BKN090 BY ETGL